createdAt,value
2022-12-01T00:00:10.477Z,11.90
2022-12-01T00:10:26.926Z,10.43
2022-12-01T00:20:30.340Z,13.55
2022-12-01T00:30:34.584Z,15.60
2022-12-01T00:40:37.921Z,9.68
2022-12-01T00:50:42.416Z,13.30
2022-12-01T01:00:45.421Z,9.52
2022-12-01T01:10:50.095Z,9.05
2022-12-01T01:20:56.809Z,10.07
2022-12-01T01:31:05.902Z,11.68
2022-12-01T01:41:09.337Z,14.35
2022-12-01T01:51:14.928Z,12.18
2022-12-01T02:01:17.932Z,10.85
2022-12-01T02:11:52.264Z,8.73
2022-12-01T02:22:08.692Z,11.32
2022-12-01T02:32:20.217Z,13.38
2022-12-01T02:42:49.943Z,9.70
2022-12-01T02:52:55.186Z,10.73
2022-12-01T03:03:21.895Z,11.63
2022-12-01T03:13:38.779Z,10.57
2022-12-01T03:23:48.645Z,8.13
2022-12-01T03:33:58.403Z,7.80
2022-12-01T03:44:07.984Z,9.23
2022-12-01T03:54:19.704Z,13.82
2022-12-01T04:14:26.710Z,8.43
2022-12-01T04:24:29.588Z,11.15
2022-12-01T04:34:33.976Z,9.15
2022-12-01T04:44:37.159Z,7.10
2022-12-01T04:54:41.555Z,11.48
2022-12-01T05:04:46.291Z,11.48
2022-12-01T05:14:50.704Z,14.40
2022-12-01T05:24:53.750Z,14.25
2022-12-01T05:34:58.069Z,19.60
2022-12-01T05:45:01.146Z,11.15
2022-12-01T05:55:07.039Z,10.27
2022-12-01T06:05:10.415Z,14.13
2022-12-01T06:15:14.989Z,14.10
2022-12-01T06:25:18.155Z,17.95
2022-12-01T06:35:22.886Z,17.00
2022-12-01T06:45:25.803Z,12.48
2022-12-01T06:55:30.409Z,15.85
2022-12-01T07:05:33.688Z,13.02
2022-12-01T07:15:38.903Z,15.95
2022-12-01T07:25:42.544Z,15.85
2022-12-01T07:35:48.280Z,19.00
2022-12-01T07:45:51.304Z,20.95
2022-12-01T07:55:56.031Z,21.00
2022-12-01T08:05:59.867Z,26.25
2022-12-01T08:16:06.622Z,27.70
2022-12-01T08:26:13.186Z,27.77
2022-12-01T08:36:18.103Z,33.30
2022-12-01T08:46:21.448Z,32.42
2022-12-01T08:56:27.231Z,26.70
2022-12-01T09:06:30.313Z,22.65
2022-12-01T09:16:34.819Z,31.13
2022-12-01T09:26:37.808Z,37.47
2022-12-01T09:36:42.564Z,42.17
2022-12-01T09:46:50.129Z,31.20
2022-12-01T09:56:57.163Z,33.78
2022-12-01T10:07:02.529Z,33.10
2022-12-01T10:17:19.425Z,31.10
2022-12-01T10:27:36.247Z,37.42
2022-12-01T10:37:40.667Z,43.85
2022-12-01T10:48:09.126Z,40.28
2022-12-01T10:58:17.322Z,37.33
2022-12-01T11:08:25.962Z,45.88
2022-12-01T11:18:33.906Z,38.97
2022-12-01T11:28:40.472Z,39.72
2022-12-01T11:38:45.051Z,38.85
2022-12-01T11:48:58.257Z,66.53
2022-12-01T11:59:06.177Z,33.95
2022-12-01T12:09:45.097Z,39.95
2022-12-01T12:20:19.569Z,39.40
2022-12-01T12:30:26.420Z,34.65
2022-12-01T12:40:42.852Z,30.23
2022-12-01T12:50:53.434Z,27.48
2022-12-01T13:01:01.839Z,28.08
2022-12-01T13:11:10.632Z,29.83
2022-12-01T13:21:18.866Z,27.88
2022-12-01T13:31:23.558Z,23.92
2022-12-01T13:41:32.722Z,28.20
2022-12-01T13:52:09.264Z,30.23
2022-12-01T14:02:22.248Z,97.75
2022-12-01T14:12:30.478Z,60.38
2022-12-01T14:22:38.613Z,33.22
2022-12-01T14:32:41.563Z,32.22
2022-12-01T14:43:12.266Z,28.55
2022-12-01T14:53:25.406Z,31.05
2022-12-01T15:03:35.614Z,28.38
2022-12-01T15:13:48.291Z,27.55
2022-12-01T15:24:00.490Z,27.83
2022-12-01T15:44:20.718Z,44.92
2022-12-01T15:54:26.688Z,49.20
2022-12-01T16:04:32.497Z,56.08
2022-12-01T16:14:36.314Z,38.65
2022-12-01T16:24:48.036Z,42.80
2022-12-01T16:34:52.812Z,33.03
2022-12-01T16:44:59.767Z,33.03
2022-12-01T16:55:03.017Z,34.00
2022-12-01T17:05:09.551Z,28.83
2022-12-01T17:15:13.088Z,36.95
2022-12-01T17:25:17.736Z,33.85
2022-12-01T17:35:20.925Z,31.13
2022-12-01T17:45:27.901Z,31.30
2022-12-01T17:55:31.975Z,31.02
2022-12-01T18:05:36.817Z,26.90
2022-12-01T18:15:40.776Z,20.50
2022-12-01T18:25:47.740Z,18.13
2022-12-01T18:35:51.834Z,19.15
2022-12-01T18:46:00.337Z,23.45
2022-12-01T18:56:04.672Z,16.58
2022-12-01T19:06:12.746Z,20.88
2022-12-01T19:16:18.003Z,22.27
2022-12-01T19:26:23.311Z,21.48
2022-12-01T19:36:27.554Z,23.85
2022-12-01T19:46:32.051Z,25.33
2022-12-01T19:56:35.199Z,18.50
2022-12-01T20:06:39.650Z,23.85
2022-12-01T20:16:42.678Z,20.10
2022-12-01T20:26:50.323Z,18.55
2022-12-01T20:36:53.671Z,20.67
2022-12-01T20:46:58.040Z,22.50
2022-12-01T20:57:01.026Z,20.83
2022-12-01T21:07:05.442Z,18.90
2022-12-01T21:17:18.970Z,18.75
2022-12-01T21:27:23.412Z,17.02
2022-12-01T21:37:28.328Z,21.98
2022-12-01T21:47:32.670Z,26.00
2022-12-01T21:57:43.125Z,18.42
2022-12-01T22:07:47.674Z,23.05
2022-12-01T22:17:50.455Z,17.65
2022-12-01T22:27:55.190Z,19.27
2022-12-01T22:38:15.717Z,21.27
2022-12-01T22:48:35.860Z,26.10
2022-12-01T22:58:41.535Z,19.08
2022-12-01T23:08:45.753Z,21.30
2022-12-01T23:18:49.111Z,21.92
2022-12-01T23:28:56.464Z,15.70
2022-12-01T23:39:07.421Z,19.90
2022-12-01T23:49:14.993Z,22.10
2022-12-01T23:59:19.715Z,17.15
